sensor_id;sensor_type;location;lat;lon;timestamp;pressure;altitude;pressure_sealevel;temperature;humidity
9187;BME280;7273;48.902;9.410;2022-08-11T00:00:34;98430.25;;;20.62;35.40
9187;BME280;7273;48.902;9.410;2022-08-11T00:03:04;98425.88;;;20.61;34.60
9187;BME280;7273;48.902;9.410;2022-08-11T00:05:32;98427.31;;;20.67;34.24
9187;BME280;7273;48.902;9.410;2022-08-11T00:07:59;98435.47;;;20.55;34.55
9187;BME280;7273;48.902;9.410;2022-08-11T00:10:27;98421.38;;;20.56;34.67
9187;BME280;7273;48.902;9.410;2022-08-11T00:15:22;98421.41;;;20.48;34.56
9187;BME280;7273;48.902;9.410;2022-08-11T00:17:49;98427.63;;;20.36;34.88
9187;BME280;7273;48.902;9.410;2022-08-11T00:20:20;98420.19;;;20.37;34.85
9187;BME280;7273;48.902;9.410;2022-08-11T00:22:49;98416.53;;;20.33;34.92
9187;BME280;7273;48.902;9.410;2022-08-11T00:25:19;98420.13;;;20.25;35.49
9187;BME280;7273;48.902;9.410;2022-08-11T00:27:46;98424.16;;;20.19;35.20
9187;BME280;7273;48.902;9.410;2022-08-11T00:30:13;98418.34;;;20.12;35.28
9187;BME280;7273;48.902;9.410;2022-08-11T00:32:44;98424.50;;;20.08;35.43
9187;BME280;7273;48.902;9.410;2022-08-11T00:35:12;98422.44;;;19.97;35.62
9187;BME280;7273;48.902;9.410;2022-08-11T00:37:44;98427.81;;;19.93;35.80
9187;BME280;7273;48.902;9.410;2022-08-11T00:40:44;98426.69;;;19.86;37.83
9187;BME280;7273;48.902;9.410;2022-08-11T00:49:05;98434.66;;;19.70;36.55
9187;BME280;7273;48.902;9.410;2022-08-11T00:51:42;98432.84;;;19.66;35.96
9187;BME280;7273;48.902;9.410;2022-08-11T01:05:41;98415.19;;;19.38;37.37
9187;BME280;7273;48.902;9.410;2022-08-11T01:44:16;98419.19;;;18.81;39.93
9187;BME280;7273;48.902;9.410;2022-08-11T01:50:14;98415.13;;;19.04;37.10
9187;BME280;7273;48.902;9.410;2022-08-11T02:01:53;98411.13;;;19.10;39.78
9187;BME280;7273;48.902;9.410;2022-08-11T02:12:59;98411.63;;;19.12;37.82
9187;BME280;7273;48.902;9.410;2022-08-11T02:15:37;98411.44;;;19.08;37.91
9187;BME280;7273;48.902;9.410;2022-08-11T02:18:15;98410.31;;;19.01;38.03
9187;BME280;7273;48.902;9.410;2022-08-11T02:20:54;98405.13;;;18.91;37.49
9187;BME280;7273;48.902;9.410;2022-08-11T02:23:52;98406.63;;;18.97;37.73
9187;BME280;7273;48.902;9.410;2022-08-11T02:26:31;98405.63;;;18.93;38.60
9187;BME280;7273;48.902;9.410;2022-08-11T02:29:18;98400.00;;;18.81;39.71
9187;BME280;7273;48.902;9.410;2022-08-11T02:31:53;98400.78;;;18.81;38.48
9187;BME280;7273;48.902;9.410;2022-08-11T02:42:38;98394.66;;;18.67;38.69
9187;BME280;7273;48.902;9.410;2022-08-11T02:48:05;98390.16;;;18.62;40.06
9187;BME280;7273;48.902;9.410;2022-08-11T02:56:10;98397.84;;;18.52;38.89
9187;BME280;7273;48.902;9.410;2022-08-11T02:58:58;98391.38;;;18.48;40.13
9187;BME280;7273;48.902;9.410;2022-08-11T03:01:57;98396.88;;;18.48;39.63
9187;BME280;7273;48.902;9.410;2022-08-11T03:04:30;98393.66;;;18.46;38.87
9187;BME280;7273;48.902;9.410;2022-08-11T03:07:07;98397.50;;;18.45;39.00
9187;BME280;7273;48.902;9.410;2022-08-11T03:09:45;98400.56;;;18.43;38.86
9187;BME280;7273;48.902;9.410;2022-08-11T03:12:24;98397.19;;;18.46;39.30
9187;BME280;7273;48.902;9.410;2022-08-11T03:15:15;98402.06;;;18.49;38.72
9187;BME280;7273;48.902;9.410;2022-08-11T03:20:41;98407.22;;;18.51;39.09
9187;BME280;7273;48.902;9.410;2022-08-11T03:23:38;98405.88;;;18.40;39.63
9187;BME280;7273;48.902;9.410;2022-08-11T03:27:06;98409.94;;;18.42;40.54
9187;BME280;7273;48.902;9.410;2022-08-11T03:31:48;98406.31;;;18.25;39.38
9187;BME280;7273;48.902;9.410;2022-08-11T03:34:22;98404.34;;;18.25;39.14
9187;BME280;7273;48.902;9.410;2022-08-11T03:46:02;98415.59;;;18.07;40.55
9187;BME280;7273;48.902;9.410;2022-08-11T03:48:46;98413.00;;;18.10;40.85
9187;BME280;7273;48.902;9.410;2022-08-11T03:51:21;98419.28;;;18.11;39.63
9187;BME280;7273;48.902;9.410;2022-08-11T03:54:10;98416.53;;;18.11;41.59
9187;BME280;7273;48.902;9.410;2022-08-11T04:30:10;98416.59;;;17.58;41.67
9187;BME280;7273;48.902;9.410;2022-08-11T04:35:33;98419.91;;;17.47;41.70
9187;BME280;7273;48.902;9.410;2022-08-11T04:41:12;98418.31;;;17.46;43.35
9187;BME280;7273;48.902;9.410;2022-08-11T04:59:06;98431.22;;;17.54;43.41
9187;BME280;7273;48.902;9.410;2022-08-11T05:10:33;98423.06;;;17.62;41.98
9187;BME280;7273;48.902;9.410;2022-08-11T05:13:05;98426.31;;;17.64;41.02
9187;BME280;7273;48.902;9.410;2022-08-11T05:16:11;98428.78;;;17.74;40.79
9187;BME280;7273;48.902;9.410;2022-08-11T05:18:57;98426.41;;;17.81;40.78
9187;BME280;7273;48.902;9.410;2022-08-11T05:21:44;98434.78;;;17.85;41.02
9187;BME280;7273;48.902;9.410;2022-08-11T05:24:36;98432.28;;;17.97;40.95
9187;BME280;7273;48.902;9.410;2022-08-11T05:27:39;98438.13;;;18.12;41.48
9187;BME280;7273;48.902;9.410;2022-08-11T05:30:28;98427.56;;;18.28;40.72
9187;BME280;7273;48.902;9.410;2022-08-11T05:33:29;98422.66;;;18.47;42.76
9187;BME280;7273;48.902;9.410;2022-08-11T05:39:04;98423.69;;;18.77;40.90
9187;BME280;7273;48.902;9.410;2022-08-11T05:41:56;98424.69;;;19.15;40.26
9187;BME280;7273;48.902;9.410;2022-08-11T05:44:44;98427.91;;;19.42;39.77
9187;BME280;7273;48.902;9.410;2022-08-11T05:47:29;98432.06;;;19.65;39.52
9187;BME280;7273;48.902;9.410;2022-08-11T05:50:15;98432.47;;;19.93;39.55
9187;BME280;7273;48.902;9.410;2022-08-11T05:53:02;98431.88;;;20.25;39.01
9187;BME280;7273;48.902;9.410;2022-08-11T05:55:48;98433.66;;;20.59;38.76
9187;BME280;7273;48.902;9.410;2022-08-11T05:58:36;98432.09;;;20.78;38.89
9187;BME280;7273;48.902;9.410;2022-08-11T06:01:03;98437.56;;;21.07;38.37
9187;BME280;7273;48.902;9.410;2022-08-11T06:03:32;98439.97;;;21.29;38.26
9187;BME280;7273;48.902;9.410;2022-08-11T06:06:20;98437.22;;;21.62;38.13
9187;BME280;7273;48.902;9.410;2022-08-11T06:08:46;98435.34;;;21.75;37.90
9187;BME280;7273;48.902;9.410;2022-08-11T06:11:12;98438.75;;;22.04;37.68
9187;BME280;7273;48.902;9.410;2022-08-11T06:13:44;98433.84;;;22.22;38.05
9187;BME280;7273;48.902;9.410;2022-08-11T06:16:12;98435.94;;;22.61;37.96
9187;BME280;7273;48.902;9.410;2022-08-11T06:18:44;98427.72;;;23.13;38.85
9187;BME280;7273;48.902;9.410;2022-08-11T06:21:10;98420.44;;;23.60;38.77
9187;BME280;7273;48.902;9.410;2022-08-11T06:23:36;98428.84;;;23.79;39.00
9187;BME280;7273;48.902;9.410;2022-08-11T06:26:08;98425.94;;;24.03;38.63
9187;BME280;7273;48.902;9.410;2022-08-11T06:28:36;98428.63;;;24.31;37.94
9187;BME280;7273;48.902;9.410;2022-08-11T06:31:11;98426.78;;;24.35;38.30
9187;BME280;7273;48.902;9.410;2022-08-11T06:34:26;98439.25;;;24.44;37.61
9187;BME280;7273;48.902;9.410;2022-08-11T06:36:45;98431.50;;;24.34;38.62
9187;BME280;7273;48.902;9.410;2022-08-11T06:39:19;98431.22;;;24.39;37.57
9187;BME280;7273;48.902;9.410;2022-08-11T06:42:07;98426.22;;;24.29;38.89
9187;BME280;7273;48.902;9.410;2022-08-11T06:44:42;98426.16;;;24.26;38.29
9187;BME280;7273;48.902;9.410;2022-08-11T06:47:10;98430.06;;;24.09;38.17
9187;BME280;7273;48.902;9.410;2022-08-11T06:49:47;98433.97;;;24.08;38.77
9187;BME280;7273;48.902;9.410;2022-08-11T06:52:36;98430.34;;;24.04;38.17
9187;BME280;7273;48.902;9.410;2022-08-11T06:55:21;98433.59;;;23.94;38.99
9187;BME280;7273;48.902;9.410;2022-08-11T06:58:05;98435.78;;;24.01;38.24
9187;BME280;7273;48.902;9.410;2022-08-11T07:00:57;98431.56;;;24.07;38.47
9187;BME280;7273;48.902;9.410;2022-08-11T07:03:27;98434.44;;;24.10;38.02
9187;BME280;7273;48.902;9.410;2022-08-11T07:14:50;98433.63;;;24.41;37.88
9187;BME280;7273;48.902;9.410;2022-08-11T07:17:41;98435.31;;;24.61;37.65
9187;BME280;7273;48.902;9.410;2022-08-11T07:20:09;98438.38;;;24.71;37.23
9187;BME280;7273;48.902;9.410;2022-08-11T07:22:57;98433.88;;;24.82;37.02
9187;BME280;7273;48.902;9.410;2022-08-11T07:25:43;98430.97;;;24.94;37.01
9187;BME280;7273;48.902;9.410;2022-08-11T07:28:30;98431.56;;;24.84;37.01
9187;BME280;7273;48.902;9.410;2022-08-11T07:31:23;98439.25;;;24.75;37.16
9187;BME280;7273;48.902;9.410;2022-08-11T07:34:18;98430.31;;;24.66;37.22
9187;BME280;7273;48.902;9.410;2022-08-11T07:36:46;98427.56;;;24.66;37.25
9187;BME280;7273;48.902;9.410;2022-08-11T07:39:19;98429.34;;;24.74;37.06
9187;BME280;7273;48.902;9.410;2022-08-11T07:41:46;98424.78;;;24.82;36.88
9187;BME280;7273;48.902;9.410;2022-08-11T07:44:13;98416.81;;;24.96;36.75
9187;BME280;7273;48.902;9.410;2022-08-11T07:46:42;98415.44;;;25.05;36.69
9187;BME280;7273;48.902;9.410;2022-08-11T07:49:31;98417.09;;;25.10;36.83
9187;BME280;7273;48.902;9.410;2022-08-11T07:52:15;98421.09;;;25.12;36.73
9187;BME280;7273;48.902;9.410;2022-08-11T07:54:59;98419.59;;;25.15;36.57
9187;BME280;7273;48.902;9.410;2022-08-11T07:57:25;98419.13;;;25.32;36.42
9187;BME280;7273;48.902;9.410;2022-08-11T08:00:10;98414.38;;;25.48;36.47
9187;BME280;7273;48.902;9.410;2022-08-11T08:02:57;98417.78;;;25.61;36.29
9187;BME280;7273;48.902;9.410;2022-08-11T08:05:43;98418.63;;;25.84;36.33
9187;BME280;7273;48.902;9.410;2022-08-11T08:08:28;98415.13;;;25.87;36.11
9187;BME280;7273;48.902;9.410;2022-08-11T08:11:13;98411.97;;;26.07;35.81
9187;BME280;7273;48.902;9.410;2022-08-11T08:13:58;98413.34;;;25.98;36.10
9187;BME280;7273;48.902;9.410;2022-08-11T08:16:42;98415.06;;;26.02;36.07
9187;BME280;7273;48.902;9.410;2022-08-11T08:19:27;98411.84;;;26.23;35.90
9187;BME280;7273;48.902;9.410;2022-08-11T08:21:54;98414.38;;;26.31;35.66
9187;BME280;7273;48.902;9.410;2022-08-11T08:24:20;98415.78;;;26.44;35.63
9187;BME280;7273;48.902;9.410;2022-08-11T08:26:49;98414.59;;;26.45;35.78
9187;BME280;7273;48.902;9.410;2022-08-11T08:29:28;98420.78;;;26.62;35.44
9187;BME280;7273;48.902;9.410;2022-08-11T08:32:15;98416.97;;;26.70;35.41
9187;BME280;7273;48.902;9.410;2022-08-11T08:34:42;98414.44;;;26.84;35.19
9187;BME280;7273;48.902;9.410;2022-08-11T08:37:07;98411.34;;;26.89;35.16
9187;BME280;7273;48.902;9.410;2022-08-11T08:39:34;98413.41;;;26.95;34.89
9187;BME280;7273;48.902;9.410;2022-08-11T08:42:06;98417.59;;;26.82;35.33
9187;BME280;7273;48.902;9.410;2022-08-11T08:44:40;98412.34;;;27.03;34.79
9187;BME280;7273;48.902;9.410;2022-08-11T08:47:06;98410.97;;;27.20;34.96
9187;BME280;7273;48.902;9.410;2022-08-11T08:49:36;98401.22;;;27.03;35.02
9187;BME280;7273;48.902;9.410;2022-08-11T08:52:05;98415.44;;;26.98;34.34
9187;BME280;7273;48.902;9.410;2022-08-11T08:54:37;98403.94;;;27.00;34.63
9187;BME280;7273;48.902;9.410;2022-08-11T08:57:05;98412.84;;;27.12;34.52
9187;BME280;7273;48.902;9.410;2022-08-11T08:59:37;98412.19;;;27.22;34.34
9187;BME280;7273;48.902;9.410;2022-08-11T09:02:05;98418.69;;;27.30;34.52
9187;BME280;7273;48.902;9.410;2022-08-11T09:04:31;98412.06;;;27.12;32.38
9187;BME280;7273;48.902;9.410;2022-08-11T09:07:12;98404.88;;;27.11;33.16
9187;BME280;7273;48.902;9.410;2022-08-11T09:09:51;98414.13;;;27.18;34.03
9187;BME280;7273;48.902;9.410;2022-08-11T09:12:20;98401.34;;;27.40;34.26
9187;BME280;7273;48.902;9.410;2022-08-11T09:14:48;98412.56;;;27.50;33.96
9187;BME280;7273;48.902;9.410;2022-08-11T09:20:08;98412.53;;;27.80;32.87
9187;BME280;7273;48.902;9.410;2022-08-11T09:22:38;98412.06;;;27.74;33.87
9187;BME280;7273;48.902;9.410;2022-08-11T09:25:25;98405.09;;;27.91;33.81
9187;BME280;7273;48.902;9.410;2022-08-11T09:28:10;98409.78;;;27.84;31.96
9187;BME280;7273;48.902;9.410;2022-08-11T09:30:39;98411.47;;;27.92;33.51
9187;BME280;7273;48.902;9.410;2022-08-11T09:33:05;98399.25;;;28.00;33.38
9187;BME280;7273;48.902;9.410;2022-08-11T09:35:35;98407.63;;;28.03;33.50
9187;BME280;7273;48.902;9.410;2022-08-11T09:38:04;98406.66;;;27.89;33.37
9187;BME280;7273;48.902;9.410;2022-08-11T09:40:50;98406.81;;;28.03;33.21
9187;BME280;7273;48.902;9.410;2022-08-11T09:43:17;98413.38;;;27.88;33.58
9187;BME280;7273;48.902;9.410;2022-08-11T09:46:01;98413.84;;;27.90;33.60
9187;BME280;7273;48.902;9.410;2022-08-11T09:48:30;98413.06;;;27.93;33.42
9187;BME280;7273;48.902;9.410;2022-08-11T09:50:59;98408.69;;;27.92;33.38
9187;BME280;7273;48.902;9.410;2022-08-11T09:53:29;98413.22;;;28.07;33.26
9187;BME280;7273;48.902;9.410;2022-08-11T09:55:55;98410.50;;;28.14;33.40
9187;BME280;7273;48.902;9.410;2022-08-11T09:58:21;98402.84;;;28.00;33.31
9187;BME280;7273;48.902;9.410;2022-08-11T10:00:49;98402.72;;;27.90;33.61
9187;BME280;7273;48.902;9.410;2022-08-11T10:03:20;98401.72;;;28.08;33.19
9187;BME280;7273;48.902;9.410;2022-08-11T10:05:48;98400.59;;;28.16;33.04
9187;BME280;7273;48.902;9.410;2022-08-11T10:08:37;98395.34;;;28.51;32.62
9187;BME280;7273;48.902;9.410;2022-08-11T10:11:04;98392.47;;;28.41;33.09
9187;BME280;7273;48.902;9.410;2022-08-11T10:13:32;98396.16;;;28.52;32.63
9187;BME280;7273;48.902;9.410;2022-08-11T10:16:20;98391.13;;;28.71;32.61
9187;BME280;7273;48.902;9.410;2022-08-11T10:18:49;98388.38;;;28.78;32.59
9187;BME280;7273;48.902;9.410;2022-08-11T10:21:31;98385.19;;;28.76;31.43
9187;BME280;7273;48.902;9.410;2022-08-11T10:24:00;98390.38;;;28.78;32.32
9187;BME280;7273;48.902;9.410;2022-08-11T10:26:49;98393.94;;;28.75;31.96
9187;BME280;7273;48.902;9.410;2022-08-11T10:29:26;98389.19;;;28.79;31.31
9187;BME280;7273;48.902;9.410;2022-08-11T10:32:12;98390.78;;;28.80;31.92
9187;BME280;7273;48.902;9.410;2022-08-11T10:34:58;98376.88;;;28.83;32.01
9187;BME280;7273;48.902;9.410;2022-08-11T10:37:26;98391.53;;;28.73;31.88
9187;BME280;7273;48.902;9.410;2022-08-11T10:39:59;98378.91;;;28.90;31.75
9187;BME280;7273;48.902;9.410;2022-08-11T10:42:25;98369.78;;;28.93;31.87
9187;BME280;7273;48.902;9.410;2022-08-11T10:45:09;98384.50;;;28.93;31.68
9187;BME280;7273;48.902;9.410;2022-08-11T10:47:55;98366.66;;;29.05;31.53
9187;BME280;7273;48.902;9.410;2022-08-11T10:50:22;98368.34;;;29.24;31.41
9187;BME280;7273;48.902;9.410;2022-08-11T10:53:06;98358.91;;;29.60;31.18
9187;BME280;7273;48.902;9.410;2022-08-11T10:55:52;98355.78;;;29.68;31.01
9187;BME280;7273;48.902;9.410;2022-08-11T10:58:37;98355.75;;;29.61;31.26
9187;BME280;7273;48.902;9.410;2022-08-11T11:01:21;98355.81;;;29.89;30.51
9187;BME280;7273;48.902;9.410;2022-08-11T11:03:54;98350.66;;;29.98;30.19
9187;BME280;7273;48.902;9.410;2022-08-11T11:06:37;98341.50;;;30.15;29.38
9187;BME280;7273;48.902;9.410;2022-08-11T11:09:15;98344.28;;;30.15;30.07
9187;BME280;7273;48.902;9.410;2022-08-11T11:14:49;98341.28;;;31.42;29.59
9187;BME280;7273;48.902;9.410;2022-08-11T11:17:39;98333.22;;;32.16;29.25
9187;BME280;7273;48.902;9.410;2022-08-11T11:23:05;98339.09;;;33.14;28.48
9187;BME280;7273;48.902;9.410;2022-08-11T11:25:43;98334.66;;;33.76;28.54
9187;BME280;7273;48.902;9.410;2022-08-11T11:39:10;98330.16;;;36.44;29.51
9187;BME280;7273;48.902;9.410;2022-08-11T11:41:37;98328.31;;;35.70;30.23
9187;BME280;7273;48.902;9.410;2022-08-11T11:44:03;98322.88;;;35.79;30.19
9187;BME280;7273;48.902;9.410;2022-08-11T11:46:30;98315.31;;;36.72;29.16
9187;BME280;7273;48.902;9.410;2022-08-11T11:48:56;98316.81;;;37.88;28.03
9187;BME280;7273;48.902;9.410;2022-08-11T11:51:25;98317.50;;;38.17;28.22
9187;BME280;7273;48.902;9.410;2022-08-11T11:53:51;98315.53;;;37.22;23.07
9187;BME280;7273;48.902;9.410;2022-08-11T11:56:18;98313.66;;;36.59;29.95
9187;BME280;7273;48.902;9.410;2022-08-11T11:58:46;98310.31;;;36.80;29.38
9187;BME280;7273;48.902;9.410;2022-08-11T12:01:32;98314.19;;;36.86;29.06
9187;BME280;7273;48.902;9.410;2022-08-11T12:03:59;98313.97;;;36.77;29.34
9187;BME280;7273;48.902;9.410;2022-08-11T12:06:25;98304.47;;;36.71;29.43
9187;BME280;7273;48.902;9.410;2022-08-11T12:08:54;98306.34;;;37.34;28.25
9187;BME280;7273;48.902;9.410;2022-08-11T12:11:22;98305.25;;;37.95;27.72
9187;BME280;7273;48.902;9.410;2022-08-11T12:14:07;98312.28;;;36.95;28.52
9187;BME280;7273;48.902;9.410;2022-08-11T12:16:35;98308.53;;;37.68;27.11
9187;BME280;7273;48.902;9.410;2022-08-11T12:19:18;98299.03;;;37.21;25.49
9187;BME280;7273;48.902;9.410;2022-08-11T12:21:47;98292.91;;;37.38;22.64
9187;BME280;7273;48.902;9.410;2022-08-11T12:24:34;98290.84;;;37.26;28.39
9187;BME280;7273;48.902;9.410;2022-08-11T12:27:19;98299.91;;;37.05;28.67
9187;BME280;7273;48.902;9.410;2022-08-11T12:29:50;98289.81;;;36.47;26.97
9187;BME280;7273;48.902;9.410;2022-08-11T12:32:18;98292.31;;;36.45;28.36
9187;BME280;7273;48.902;9.410;2022-08-11T12:34:44;98289.88;;;36.60;28.31
9187;BME280;7273;48.902;9.410;2022-08-11T12:37:10;98279.44;;;37.30;27.31
9187;BME280;7273;48.902;9.410;2022-08-11T12:39:45;98283.72;;;36.93;25.27
9187;BME280;7273;48.902;9.410;2022-08-11T12:42:33;98278.56;;;37.04;27.50
9187;BME280;7273;48.902;9.410;2022-08-11T12:45:18;98271.19;;;36.66;27.79
9187;BME280;7273;48.902;9.410;2022-08-11T12:48:17;98275.00;;;36.59;23.94
9187;BME280;7273;48.902;9.410;2022-08-11T12:51:08;98260.25;;;36.07;26.85
9187;BME280;7273;48.902;9.410;2022-08-11T12:53:57;98256.31;;;35.69;26.67
9187;BME280;7273;48.902;9.410;2022-08-11T12:56:27;98256.47;;;35.26;27.90
9187;BME280;7273;48.902;9.410;2022-08-11T12:59:15;98254.41;;;34.52;28.64
9187;BME280;7273;48.902;9.410;2022-08-11T13:01:59;98264.78;;;34.32;28.13
9187;BME280;7273;48.902;9.410;2022-08-11T13:04:45;98258.34;;;34.08;27.76
9187;BME280;7273;48.902;9.410;2022-08-11T13:07:20;98250.13;;;33.71;27.47
9187;BME280;7273;48.902;9.410;2022-08-11T13:09:47;98234.00;;;34.02;26.40
9187;BME280;7273;48.902;9.410;2022-08-11T13:12:13;98234.31;;;33.80;26.09
9187;BME280;7273;48.902;9.410;2022-08-11T13:14:59;98233.41;;;33.37;26.03
9187;BME280;7273;48.902;9.410;2022-08-11T13:17:25;98233.53;;;33.27;25.78
9187;BME280;7273;48.902;9.410;2022-08-11T13:19:55;98228.34;;;33.25;25.32
9187;BME280;7273;48.902;9.410;2022-08-11T13:22:22;98232.25;;;33.05;25.09
9187;BME280;7273;48.902;9.410;2022-08-11T13:24:50;98228.00;;;32.56;24.87
9187;BME280;7273;48.902;9.410;2022-08-11T13:27:20;98219.19;;;32.57;24.61
9187;BME280;7273;48.902;9.410;2022-08-11T13:29:48;98229.69;;;32.09;24.52
9187;BME280;7273;48.902;9.410;2022-08-11T13:32:14;98225.34;;;32.05;24.59
9187;BME280;7273;48.902;9.410;2022-08-11T13:34:41;98228.47;;;32.10;24.18
9187;BME280;7273;48.902;9.410;2022-08-11T13:37:12;98222.41;;;31.68;24.40
9187;BME280;7273;48.902;9.410;2022-08-11T13:39:41;98217.41;;;31.41;24.60
9187;BME280;7273;48.902;9.410;2022-08-11T13:42:12;98217.09;;;31.36;24.19
9187;BME280;7273;48.902;9.410;2022-08-11T13:44:38;98209.03;;;31.41;24.20
9187;BME280;7273;48.902;9.410;2022-08-11T13:47:07;98199.03;;;31.44;23.98
9187;BME280;7273;48.902;9.410;2022-08-11T13:49:38;98207.97;;;31.21;23.78
9187;BME280;7273;48.902;9.410;2022-08-11T13:52:04;98202.03;;;31.05;24.25
9187;BME280;7273;48.902;9.410;2022-08-11T13:54:34;98194.31;;;31.27;23.64
9187;BME280;7273;48.902;9.410;2022-08-11T13:57:05;98195.63;;;31.08;23.96
9187;BME280;7273;48.902;9.410;2022-08-11T13:59:31;98187.19;;;31.19;23.90
9187;BME280;7273;48.902;9.410;2022-08-11T14:02:03;98193.63;;;31.09;23.31
9187;BME280;7273;48.902;9.410;2022-08-11T14:05:05;98186.88;;;31.10;22.91
9187;BME280;7273;48.902;9.410;2022-08-11T14:07:41;98188.16;;;30.95;23.55
9187;BME280;7273;48.902;9.410;2022-08-11T14:10:11;98191.75;;;30.92;23.55
9187;BME280;7273;48.902;9.410;2022-08-11T14:12:37;98185.78;;;30.90;22.61
9187;BME280;7273;48.902;9.410;2022-08-11T14:15:24;98185.47;;;30.63;22.64
9187;BME280;7273;48.902;9.410;2022-08-11T14:18:33;98168.69;;;30.70;23.36
9187;BME280;7273;48.902;9.410;2022-08-11T14:20:54;98163.19;;;30.49;23.83
9187;BME280;7273;48.902;9.410;2022-08-11T14:23:44;98168.78;;;30.49;23.70
9187;BME280;7273;48.902;9.410;2022-08-11T14:26:11;98175.63;;;30.31;23.97
9187;BME280;7273;48.902;9.410;2022-08-11T14:29:06;98172.03;;;30.34;23.42
9187;BME280;7273;48.902;9.410;2022-08-11T14:31:36;98171.94;;;30.51;23.71
9187;BME280;7273;48.902;9.410;2022-08-11T14:34:05;98167.16;;;30.55;23.48
9187;BME280;7273;48.902;9.410;2022-08-11T14:36:36;98168.00;;;30.45;23.68
9187;BME280;7273;48.902;9.410;2022-08-11T14:39:06;98167.25;;;30.27;23.55
9187;BME280;7273;48.902;9.410;2022-08-11T14:41:32;98153.69;;;30.18;23.77
9187;BME280;7273;48.902;9.410;2022-08-11T14:44:17;98154.91;;;30.17;23.58
9187;BME280;7273;48.902;9.410;2022-08-11T14:47:02;98160.50;;;30.10;23.83
9187;BME280;7273;48.902;9.410;2022-08-11T14:49:30;98160.91;;;30.02;23.76
9187;BME280;7273;48.902;9.410;2022-08-11T14:51:59;98154.19;;;29.85;23.87
9187;BME280;7273;48.902;9.410;2022-08-11T14:54:29;98150.94;;;30.04;23.63
9187;BME280;7273;48.902;9.410;2022-08-11T14:57:15;98145.78;;;29.92;23.71
9187;BME280;7273;48.902;9.410;2022-08-11T14:59:42;98142.19;;;29.99;23.68
9187;BME280;7273;48.902;9.410;2022-08-11T15:02:09;98138.19;;;30.03;23.59
9187;BME280;7273;48.902;9.410;2022-08-11T15:04:54;98135.78;;;30.02;23.66
9187;BME280;7273;48.902;9.410;2022-08-11T15:07:22;98127.81;;;30.00;23.63
9187;BME280;7273;48.902;9.410;2022-08-11T15:09:55;98143.00;;;29.89;23.74
9187;BME280;7273;48.902;9.410;2022-08-11T15:12:22;98139.38;;;29.99;23.55
9187;BME280;7273;48.902;9.410;2022-08-11T15:14:49;98135.78;;;30.02;23.57
9187;BME280;7273;48.902;9.410;2022-08-11T15:17:34;98134.59;;;30.06;23.67
9187;BME280;7273;48.902;9.410;2022-08-11T15:20:06;98127.41;;;30.12;23.42
9187;BME280;7273;48.902;9.410;2022-08-11T15:22:51;98133.38;;;30.11;23.67
9187;BME280;7273;48.902;9.410;2022-08-11T15:25:36;98124.63;;;30.09;23.73
9187;BME280;7273;48.902;9.410;2022-08-11T15:28:03;98127.41;;;30.12;23.64
9187;BME280;7273;48.902;9.410;2022-08-11T15:30:52;98115.50;;;29.94;23.60
9187;BME280;7273;48.902;9.410;2022-08-11T15:33:39;98118.69;;;29.96;23.77
9187;BME280;7273;48.902;9.410;2022-08-11T15:36:25;98123.50;;;29.85;23.77
9187;BME280;7273;48.902;9.410;2022-08-11T15:39:20;98107.94;;;29.88;23.66
9187;BME280;7273;48.902;9.410;2022-08-11T15:41:53;98114.31;;;29.88;23.70
9187;BME280;7273;48.902;9.410;2022-08-11T15:44:42;98104.78;;;29.75;23.74
9187;BME280;7273;48.902;9.410;2022-08-11T15:47:35;98112.34;;;29.75;23.82
9187;BME280;7273;48.902;9.410;2022-08-11T15:50:02;98128.28;;;29.64;24.07
9187;BME280;7273;48.902;9.410;2022-08-11T15:52:33;98114.75;;;29.59;24.13
9187;BME280;7273;48.902;9.410;2022-08-11T15:55:05;98109.19;;;29.34;24.47
9187;BME280;7273;48.902;9.410;2022-08-11T15:57:32;98112.38;;;29.36;24.35
9187;BME280;7273;48.902;9.410;2022-08-11T16:00:17;98111.97;;;29.27;24.41
9187;BME280;7273;48.902;9.410;2022-08-11T16:03:02;98114.34;;;29.11;24.61
9187;BME280;7273;48.902;9.410;2022-08-11T16:05:48;98108.38;;;29.09;24.71
9187;BME280;7273;48.902;9.410;2022-08-11T16:08:17;98105.94;;;29.00;24.65
9187;BME280;7273;48.902;9.410;2022-08-11T16:10:47;98108.34;;;28.95;24.76
9187;BME280;7273;48.902;9.410;2022-08-11T16:13:13;98109.91;;;28.85;24.78
9187;BME280;7273;48.902;9.410;2022-08-11T16:15:46;98101.94;;;28.87;24.65
9187;BME280;7273;48.902;9.410;2022-08-11T16:21:19;98102.34;;;28.89;24.59
9187;BME280;7273;48.902;9.410;2022-08-11T16:23:49;98100.38;;;28.90;24.44
9187;BME280;7273;48.902;9.410;2022-08-11T16:26:19;98096.78;;;28.86;24.51
9187;BME280;7273;48.902;9.410;2022-08-11T16:28:59;98091.59;;;28.81;24.67
9187;BME280;7273;48.902;9.410;2022-08-11T16:31:26;98088.81;;;28.81;24.60
9187;BME280;7273;48.902;9.410;2022-08-11T16:33:52;98094.75;;;28.65;24.74
9187;BME280;7273;48.902;9.410;2022-08-11T16:36:21;98089.19;;;28.69;24.84
9187;BME280;7273;48.902;9.410;2022-08-11T16:39:07;98083.25;;;28.74;24.79
9187;BME280;7273;48.902;9.410;2022-08-11T16:41:35;98087.59;;;28.61;25.02
9187;BME280;7273;48.902;9.410;2022-08-11T16:44:20;98090.28;;;28.47;25.07
9187;BME280;7273;48.902;9.410;2022-08-11T16:47:06;98085.94;;;28.46;25.07
9187;BME280;7273;48.902;9.410;2022-08-11T16:49:38;98083.94;;;28.46;24.98
9187;BME280;7273;48.902;9.410;2022-08-11T16:52:07;98090.69;;;28.45;25.02
9187;BME280;7273;48.902;9.410;2022-08-11T16:54:36;98084.34;;;28.48;25.05
9187;BME280;7273;48.902;9.410;2022-08-11T16:57:14;98089.53;;;28.50;24.83
9187;BME280;7273;48.902;9.410;2022-08-11T17:00:05;98086.25;;;28.30;25.23
9187;BME280;7273;48.902;9.410;2022-08-11T17:02:34;98085.50;;;28.40;25.07
9187;BME280;7273;48.902;9.410;2022-08-11T17:05:22;98079.53;;;28.31;25.25
9187;BME280;7273;48.902;9.410;2022-08-11T17:08:08;98081.13;;;28.39;25.06
9187;BME280;7273;48.902;9.410;2022-08-11T17:11:02;98083.50;;;28.37;25.27
9187;BME280;7273;48.902;9.410;2022-08-11T17:13:58;98082.69;;;28.30;25.17
9187;BME280;7273;48.902;9.410;2022-08-11T17:16:31;98084.25;;;28.24;25.40
9187;BME280;7273;48.902;9.410;2022-08-11T17:19:03;98087.03;;;28.27;25.28
9187;BME280;7273;48.902;9.410;2022-08-11T17:21:33;98079.88;;;28.23;25.27
9187;BME280;7273;48.902;9.410;2022-08-11T17:24:06;98082.25;;;28.21;25.13
9187;BME280;7273;48.902;9.410;2022-08-11T17:29:20;98072.31;;;28.16;25.42
9187;BME280;7273;48.902;9.410;2022-08-11T17:31:47;98072.31;;;28.16;25.33
9187;BME280;7273;48.902;9.410;2022-08-11T17:34:33;98067.94;;;28.15;25.25
9187;BME280;7273;48.902;9.410;2022-08-11T17:37:19;98065.91;;;28.12;25.44
9187;BME280;7273;48.902;9.410;2022-08-11T17:39:48;98065.13;;;28.08;25.50